createdAt,value
2023-04-01T00:00:28.676Z,73.54
2023-04-01T00:02:55.398Z,74.35
2023-04-01T00:05:23.552Z,74.07
2023-04-01T00:07:50.058Z,74.33
2023-04-01T00:10:16.832Z,74.46
2023-04-01T00:12:44.750Z,74.88
2023-04-01T00:15:12.905Z,75.38
2023-04-01T00:17:39.530Z,75.00
2023-04-01T00:20:07.859Z,75.80
2023-04-01T00:22:36.055Z,75.88
2023-04-01T00:25:02.933Z,75.94
2023-04-01T00:27:29.602Z,76.08
2023-04-01T00:29:56.323Z,76.42
2023-04-01T00:32:22.889Z,75.70
2023-04-01T00:34:51.201Z,75.83
2023-04-01T00:37:18.023Z,77.09
2023-04-01T00:39:46.069Z,75.69
2023-04-01T00:42:12.829Z,75.94
2023-04-01T00:44:39.731Z,75.86
2023-04-01T00:47:06.803Z,75.45
2023-04-01T00:49:38.456Z,75.46
2023-04-01T00:52:07.916Z,75.36
2023-04-01T00:54:36.904Z,75.76
2023-04-01T00:57:07.242Z,75.45
2023-04-01T00:59:36.587Z,74.79
2023-04-01T01:02:06.314Z,74.57
2023-04-01T01:04:34.753Z,74.41
2023-04-01T01:07:18.895Z,74.09
2023-04-01T01:09:53.402Z,74.39
2023-04-01T01:12:25.198Z,73.94
2023-04-01T01:15:00.500Z,74.79
2023-04-01T01:17:38.322Z,74.27
2023-04-01T01:20:55.588Z,75.12
2023-04-01T01:23:43.502Z,74.70
2023-04-01T01:29:19.037Z,75.00
2023-04-01T01:31:57.395Z,74.82
2023-04-01T01:34:34.649Z,74.27
2023-04-01T01:37:09.501Z,74.37
2023-04-01T01:39:38.429Z,73.72
2023-04-01T01:42:09.227Z,74.01
2023-04-01T01:44:38.481Z,74.68
2023-04-01T01:47:06.520Z,74.29
2023-04-01T01:49:36.215Z,75.36
2023-04-01T01:52:04.394Z,73.92
2023-04-01T01:54:30.932Z,74.35
2023-04-01T01:57:05.441Z,74.11
2023-04-01T01:59:36.128Z,73.65
2023-04-01T02:02:04.432Z,73.61
2023-04-01T02:04:32.635Z,73.00
2023-04-01T02:07:03.672Z,73.13
2023-04-01T02:09:32.531Z,72.87
2023-04-01T02:12:03.511Z,73.16
2023-04-01T02:14:42.526Z,73.00
2023-04-01T02:17:12.861Z,72.75
2023-04-01T02:19:41.903Z,72.91
2023-04-01T02:22:12.728Z,72.89
2023-04-01T02:24:42.354Z,73.51
2023-04-01T02:27:10.397Z,74.44
2023-04-01T02:29:37.407Z,74.90
2023-04-01T02:32:09.740Z,75.37
2023-04-01T02:34:38.344Z,76.11
2023-04-01T02:37:05.239Z,76.51
2023-04-01T02:39:32.272Z,75.87
2023-04-01T02:42:00.426Z,76.35
2023-04-01T02:44:27.121Z,77.21
2023-04-01T02:46:53.968Z,77.25
2023-04-01T02:49:20.834Z,78.51
2023-04-01T02:51:47.429Z,78.00
2023-04-01T02:54:14.239Z,78.40
2023-04-01T02:56:41.687Z,78.95
2023-04-01T02:59:09.715Z,79.99
2023-04-01T03:01:36.389Z,79.67
2023-04-01T03:04:03.497Z,80.19
2023-04-01T03:06:30.241Z,81.41
2023-04-01T03:08:57.005Z,81.36
2023-04-01T03:11:23.596Z,82.03
2023-04-01T03:13:50.362Z,81.78
2023-04-01T03:16:18.429Z,82.28
2023-04-01T03:18:45.154Z,83.14
2023-04-01T03:21:16.712Z,83.81
2023-04-01T03:23:43.542Z,83.74
2023-04-01T03:26:10.162Z,83.81
2023-04-01T03:28:37.905Z,84.79
2023-04-01T03:31:04.622Z,84.21
2023-04-01T03:33:38.915Z,85.18
2023-04-01T03:36:08.930Z,86.32
2023-04-01T03:38:36.544Z,87.15
2023-04-01T03:41:03.571Z,87.13
2023-04-01T03:43:31.699Z,87.26
2023-04-01T03:45:58.324Z,86.76
2023-04-01T03:48:25.924Z,87.51
2023-04-01T03:50:53.894Z,87.50
2023-04-01T03:53:20.787Z,88.15
2023-04-01T03:55:48.134Z,88.54
2023-04-01T03:58:15.606Z,88.84
2023-04-01T04:00:42.181Z,88.97
2023-04-01T04:03:10.175Z,89.91
2023-04-01T04:05:36.903Z,90.00
2023-04-01T04:08:05.389Z,89.73
2023-04-01T04:10:32.658Z,90.57
2023-04-01T04:12:59.216Z,89.50
2023-04-01T04:15:29.343Z,89.50
2023-04-01T04:17:56.014Z,89.46
2023-04-01T04:20:22.937Z,88.91
2023-04-01T04:22:49.472Z,89.15
2023-04-01T04:25:17.487Z,88.98
2023-04-01T04:27:45.052Z,88.55
2023-04-01T04:30:14.088Z,87.73
2023-04-01T04:32:41.099Z,87.03
2023-04-01T04:35:08.626Z,86.69
2023-04-01T04:37:35.180Z,86.21
2023-04-01T04:40:01.783Z,85.63
2023-04-01T04:42:30.887Z,85.37
2023-04-01T04:45:05.027Z,85.28
2023-04-01T04:47:32.399Z,85.15
2023-04-01T04:49:58.978Z,84.41
2023-04-01T04:52:25.656Z,84.36
2023-04-01T04:54:52.275Z,84.56
2023-04-01T04:57:18.922Z,83.80
2023-04-01T04:59:54.248Z,83.93
2023-04-01T05:02:32.294Z,83.49
2023-04-01T05:04:58.896Z,83.41
2023-04-01T05:07:25.449Z,83.51
2023-04-01T05:09:52.097Z,83.73
2023-04-01T05:12:18.779Z,84.43
2023-04-01T05:14:57.478Z,84.89
2023-04-01T05:17:24.539Z,85.13
2023-04-01T05:19:51.103Z,85.71
2023-04-01T05:22:17.675Z,85.97
2023-04-01T05:24:44.510Z,86.55
2023-04-01T05:27:12.158Z,86.45
2023-04-01T05:29:40.452Z,88.29
2023-04-01T05:32:12.788Z,87.81
2023-04-01T05:34:39.406Z,87.74
2023-04-01T05:37:06.324Z,88.14
2023-04-01T05:39:36.451Z,87.69
2023-04-01T05:42:03.297Z,88.29
2023-04-01T05:44:30.134Z,88.66
2023-04-01T05:47:03.097Z,88.21
2023-04-01T05:49:31.504Z,88.01
2023-04-01T05:51:58.172Z,87.46
2023-04-01T05:54:25.175Z,88.12
2023-04-01T05:56:52.083Z,88.28
2023-04-01T05:59:20.241Z,89.07
2023-04-01T06:01:46.905Z,89.43
2023-04-01T06:04:18.173Z,88.97
2023-04-01T06:06:47.098Z,89.76
2023-04-01T06:09:16.658Z,89.75
2023-04-01T06:12:09.365Z,89.71
2023-04-01T06:14:50.993Z,89.79
2023-04-01T06:17:27.198Z,90.91
2023-04-01T06:20:03.544Z,90.98
2023-04-01T06:22:57.768Z,90.82
2023-04-01T06:25:38.145Z,90.59
2023-04-01T06:28:30.352Z,89.90
2023-04-01T06:31:04.638Z,90.76
2023-04-01T06:33:53.055Z,90.90
2023-04-01T06:36:47.554Z,90.71
2023-04-01T06:39:31.532Z,90.54
2023-04-01T06:42:14.342Z,90.47
2023-04-01T06:44:53.539Z,90.45
2023-04-01T06:47:51.765Z,89.54
2023-04-01T06:50:44.966Z,90.37
2023-04-01T06:53:35.883Z,90.34
2023-04-01T06:56:28.035Z,89.35
2023-04-01T06:59:05.607Z,89.31
2023-04-01T07:01:38.374Z,89.65
2023-04-01T07:04:10.743Z,90.23
2023-04-01T07:06:43.799Z,89.53
2023-04-01T07:09:14.528Z,89.99
2023-04-01T07:12:10.417Z,89.29
2023-04-01T07:15:04.160Z,89.30
2023-04-01T07:17:34.878Z,89.23
2023-04-01T07:20:06.212Z,88.53
2023-04-01T07:22:35.954Z,88.27
2023-04-01T07:25:24.914Z,88.69
2023-04-01T07:28:05.836Z,88.11
2023-04-01T07:30:45.384Z,88.06
2023-04-01T07:33:16.286Z,87.59
2023-04-01T07:35:48.794Z,87.75
2023-04-01T07:38:23.684Z,87.31
2023-04-01T07:40:59.510Z,87.23
2023-04-01T07:43:54.555Z,87.69
2023-04-01T07:46:47.487Z,88.10
2023-04-01T07:49:18.214Z,88.00
2023-04-01T07:51:53.181Z,87.80
2023-04-01T07:54:26.334Z,88.08
2023-04-01T07:57:02.149Z,88.30
2023-04-01T07:59:54.018Z,88.22
2023-04-01T08:02:36.682Z,88.25
2023-04-01T08:05:17.568Z,88.29
2023-04-01T08:07:51.992Z,87.96
2023-04-01T08:10:47.945Z,89.54
2023-04-01T08:13:41.247Z,89.05
2023-04-01T08:16:39.197Z,89.83
2023-04-01T08:19:18.908Z,89.71
2023-04-01T08:21:48.776Z,89.97
2023-04-01T08:24:37.149Z,90.75
2023-04-01T08:27:18.674Z,90.79
2023-04-01T08:29:52.264Z,91.03
2023-04-01T08:32:26.971Z,90.68
2023-04-01T08:35:08.311Z,90.53
2023-04-01T08:37:40.954Z,90.71
2023-04-01T08:40:28.406Z,91.06
2023-04-01T08:43:08.811Z,92.29
2023-04-01T08:45:53.133Z,92.26
2023-04-01T08:48:41.359Z,92.79
2023-04-01T08:51:33.760Z,92.99
2023-04-01T08:54:31.005Z,92.92
2023-04-01T08:57:09.049Z,93.33
2023-04-01T08:59:58.555Z,92.75
2023-04-01T09:03:21.983Z,93.19
2023-04-01T09:06:13.451Z,93.04
2023-04-01T09:08:53.528Z,93.96
2023-04-01T09:11:34.481Z,94.41
2023-04-01T09:14:30.307Z,94.26
2023-04-01T09:17:42.504Z,94.45
2023-04-01T09:20:40.392Z,94.75
2023-04-01T09:23:27.604Z,94.45
2023-04-01T09:26:08.425Z,94.07
2023-04-01T09:28:43.739Z,94.35
2023-04-01T09:31:37.508Z,96.07
2023-04-01T09:34:52.509Z,94.45
2023-04-01T09:37:24.508Z,93.53
2023-04-01T09:40:15.369Z,91.58
2023-04-01T09:42:55.129Z,92.34
2023-04-01T09:45:37.326Z,92.51
2023-04-01T09:48:16.183Z,91.75
2023-04-01T09:50:51.377Z,91.83
2023-04-01T09:53:38.193Z,91.91
2023-04-01T09:56:41.415Z,92.13
2023-04-01T09:59:47.358Z,92.25
2023-04-01T10:02:56.389Z,93.38
2023-04-01T10:05:55.282Z,93.24
2023-04-01T10:08:46.939Z,94.16
2023-04-01T10:11:50.379Z,94.03
2023-04-01T10:14:33.296Z,93.42
2023-04-01T10:17:37.178Z,92.80
2023-04-01T10:20:30.671Z,92.91
2023-04-01T10:23:04.613Z,92.51
2023-04-01T10:26:04.228Z,91.08
2023-04-01T10:28:45.460Z,91.40
2023-04-01T10:32:09.931Z,91.07
2023-04-01T10:35:09.472Z,91.56
2023-04-01T10:37:54.885Z,90.77
2023-04-01T10:40:38.760Z,89.57
2023-04-01T10:43:54.037Z,90.82
2023-04-01T10:46:42.833Z,89.30
2023-04-01T10:49:42.248Z,89.12
2023-04-01T10:52:32.948Z,88.28
2023-04-01T10:55:38.766Z,87.95
2023-04-01T10:59:05.293Z,88.04
2023-04-01T11:02:24.613Z,87.53
2023-04-01T11:05:50.099Z,88.01
2023-04-01T11:08:48.128Z,86.55
2023-04-01T11:12:08.823Z,87.09
2023-04-01T11:15:32.257Z,86.13
2023-04-01T11:18:50.752Z,87.67
2023-04-01T11:21:49.895Z,88.97
2023-04-01T11:25:11.426Z,88.62
2023-04-01T11:28:05.974Z,88.21
2023-04-01T11:30:48.869Z,87.93
2023-04-01T11:33:21.868Z,86.81
2023-04-01T11:36:00.243Z,86.93
2023-04-01T11:38:40.482Z,86.85
2023-04-01T11:41:42.742Z,86.15
2023-04-01T11:44:57.603Z,86.91
2023-04-01T11:47:53.150Z,85.95
2023-04-01T11:50:32.736Z,87.60
2023-04-01T11:53:19.736Z,87.42
2023-04-01T11:55:57.482Z,87.09
2023-04-01T11:58:43.298Z,88.37
2023-04-01T12:01:18.653Z,89.13
2023-04-01T12:04:25.007Z,88.78
2023-04-01T12:07:01.213Z,87.44
2023-04-01T12:09:38.703Z,86.94
2023-04-01T12:12:18.876Z,86.48
2023-04-01T12:14:54.580Z,86.27
2023-04-01T12:17:34.932Z,86.43
2023-04-01T12:20:23.091Z,85.89
2023-04-01T12:23:00.164Z,85.22
2023-04-01T12:25:48.238Z,86.00
2023-04-01T12:28:25.470Z,85.29
2023-04-01T12:31:03.652Z,86.61
2023-04-01T12:33:52.046Z,86.62
2023-04-01T12:36:33.400Z,83.91
2023-04-01T12:39:29.765Z,86.13
2023-04-01T12:42:06.177Z,85.94
2023-04-01T12:44:53.552Z,86.11
2023-04-01T12:47:45.978Z,86.32
2023-04-01T12:50:27.949Z,85.99
2023-04-01T12:53:15.125Z,86.21
2023-04-01T12:55:42.950Z,86.33
2023-04-01T12:58:33.438Z,85.91
2023-04-01T13:01:25.553Z,86.83
2023-04-01T13:04:09.340Z,85.06
2023-04-01T13:06:51.086Z,85.30
2023-04-01T13:09:27.227Z,85.31
2023-04-01T13:12:17.522Z,85.14
2023-04-01T13:14:58.120Z,83.29
2023-04-01T13:17:35.269Z,84.73
2023-04-01T13:20:07.195Z,85.30
2023-04-01T13:22:50.124Z,85.29
2023-04-01T13:25:27.031Z,84.45
2023-04-01T13:28:01.299Z,82.02
2023-04-01T13:30:33.985Z,82.52
2023-04-01T13:33:07.094Z,81.57
2023-04-01T13:35:42.680Z,82.98
2023-04-01T13:38:50.605Z,82.98
2023-04-01T13:41:28.397Z,82.25
2023-04-01T13:44:03.087Z,82.79
2023-04-01T13:46:55.524Z,83.23
2023-04-01T13:49:45.900Z,83.49
2023-04-01T13:52:30.645Z,83.39
2023-04-01T13:55:21.743Z,83.90
2023-04-01T13:58:12.077Z,83.14
2023-04-01T14:00:54.291Z,82.88
2023-04-01T14:03:31.089Z,82.66
2023-04-01T14:06:07.266Z,83.50
2023-04-01T14:09:01.719Z,82.84
2023-04-01T14:11:37.257Z,84.56
2023-04-01T14:14:19.029Z,85.58
2023-04-01T14:16:59.743Z,84.69
2023-04-01T14:19:40.164Z,86.78
2023-04-01T14:22:19.247Z,86.26
2023-04-01T14:25:21.922Z,86.70
2023-04-01T14:27:58.007Z,88.15
2023-04-01T14:30:47.624Z,86.75
2023-04-01T14:33:29.749Z,86.94
2023-04-01T14:36:13.000Z,86.81
2023-04-01T14:39:01.557Z,86.27
2023-04-01T14:41:45.708Z,86.64
2023-04-01T14:44:24.711Z,84.88
2023-04-01T14:47:26.939Z,85.73
2023-04-01T14:50:05.074Z,81.87
2023-04-01T14:52:34.856Z,83.83
2023-04-01T14:55:02.240Z,84.14
2023-04-01T14:57:30.406Z,82.91
2023-04-01T15:00:02.396Z,84.18
2023-04-01T15:02:53.051Z,82.89
2023-04-01T15:05:33.212Z,82.81
2023-04-01T15:08:10.574Z,83.58
2023-04-01T15:10:50.230Z,83.51
2023-04-01T15:13:31.418Z,82.71
2023-04-01T15:16:10.288Z,84.16
2023-04-01T15:18:46.409Z,84.21
2023-04-01T15:21:24.115Z,84.37
2023-04-01T15:24:00.813Z,84.41
2023-04-01T15:26:39.969Z,84.09
2023-04-01T15:29:29.815Z,83.37
2023-04-01T15:32:02.147Z,84.04
2023-04-01T15:34:36.862Z,82.92
2023-04-01T15:37:14.832Z,83.46
2023-04-01T15:39:55.210Z,83.24
2023-04-01T15:42:42.509Z,82.75
2023-04-01T15:45:18.838Z,84.42
2023-04-01T15:47:54.389Z,84.49
2023-04-01T15:53:33.125Z,85.83
2023-04-01T15:56:15.640Z,85.05
2023-04-01T15:58:53.013Z,84.70
2023-04-01T16:01:30.026Z,85.73
2023-04-01T16:04:06.629Z,85.66
2023-04-01T16:06:51.713Z,85.41
2023-04-01T16:09:43.875Z,85.53
2023-04-01T16:12:17.211Z,86.00
2023-04-01T16:15:00.342Z,86.04
2023-04-01T16:17:39.919Z,86.60
2023-04-01T16:20:18.578Z,86.48
2023-04-01T16:22:54.165Z,87.22
2023-04-01T16:25:32.598Z,87.68
2023-04-01T16:28:16.047Z,87.68
2023-04-01T16:30:47.799Z,87.23
2023-04-01T16:33:19.995Z,87.27
2023-04-01T16:35:48.400Z,86.30
2023-04-01T16:38:22.238Z,85.49
2023-04-01T16:41:05.625Z,85.87
2023-04-01T16:43:41.988Z,86.78
2023-04-01T16:46:34.725Z,86.83
2023-04-01T16:49:15.006Z,88.09
2023-04-01T16:51:47.398Z,87.38
2023-04-01T16:54:26.893Z,87.73
2023-04-01T16:57:03.155Z,88.86
2023-04-01T16:59:36.630Z,88.51
2023-04-01T17:02:10.952Z,88.53
2023-04-01T17:04:42.042Z,88.71
2023-04-01T17:07:22.052Z,88.73
2023-04-01T17:10:03.140Z,88.68
2023-04-01T17:12:37.252Z,88.91
2023-04-01T17:15:14.955Z,88.70
2023-04-01T17:17:50.836Z,89.14
2023-04-01T17:20:32.758Z,88.66
2023-04-01T17:23:04.487Z,88.99
2023-04-01T17:25:46.574Z,89.87
2023-04-01T17:28:28.721Z,89.26
2023-04-01T17:31:03.519Z,89.13
2023-04-01T17:33:46.299Z,89.33
2023-04-01T17:36:23.224Z,89.42
2023-04-01T17:39:02.558Z,89.72
2023-04-01T17:41:43.455Z,90.83
2023-04-01T17:44:25.791Z,90.55
2023-04-01T17:47:11.370Z,90.58
2023-04-01T17:49:46.287Z,90.33
2023-04-01T17:52:25.441Z,90.43
2023-04-01T17:54:58.269Z,89.79
2023-04-01T17:57:37.930Z,90.00
2023-04-01T18:00:19.639Z,91.07
2023-04-01T18:02:58.170Z,91.08
2023-04-01T18:05:51.818Z,91.71
2023-04-01T18:08:34.121Z,91.71
2023-04-01T18:11:09.427Z,92.52
2023-04-01T18:13:59.315Z,92.70
2023-04-01T18:16:48.180Z,92.94
2023-04-01T18:19:21.596Z,93.71
2023-04-01T18:21:51.652Z,93.58
2023-04-01T18:24:25.821Z,93.17
2023-04-01T18:27:03.654Z,92.39
2023-04-01T18:29:40.271Z,91.86
2023-04-01T18:32:23.839Z,92.03
2023-04-01T18:34:58.465Z,92.90
2023-04-01T18:37:30.757Z,92.31
2023-04-01T18:40:04.694Z,92.14
2023-04-01T18:42:43.987Z,92.20
2023-04-01T18:45:20.968Z,91.95
2023-04-01T18:47:58.661Z,92.27
2023-04-01T18:50:29.340Z,92.83
2023-04-01T18:53:01.366Z,92.58
2023-04-01T18:55:37.894Z,92.20
2023-04-01T18:58:19.641Z,93.00
2023-04-01T19:00:52.742Z,93.03
2023-04-01T19:03:24.219Z,93.35
2023-04-01T19:05:53.143Z,93.76
2023-04-01T19:08:27.868Z,94.21
2023-04-01T19:11:05.956Z,93.95
2023-04-01T19:13:44.490Z,93.74
2023-04-01T19:16:22.211Z,93.58
2023-04-01T19:19:08.577Z,93.18
2023-04-01T19:21:40.381Z,93.34
2023-04-01T19:24:38.341Z,93.13
2023-04-01T19:27:15.621Z,93.68
2023-04-01T19:29:55.106Z,93.77
2023-04-01T19:32:31.365Z,93.70
2023-04-01T19:35:13.943Z,93.68
2023-04-01T19:37:42.142Z,93.56
2023-04-01T19:40:29.088Z,93.32
2023-04-01T19:43:03.490Z,93.63
2023-04-01T19:45:39.340Z,93.47
2023-04-01T19:48:18.172Z,93.20
2023-04-01T19:50:52.086Z,92.76
2023-04-01T19:53:28.890Z,92.94
2023-04-01T19:56:02.962Z,92.89
2023-04-01T19:58:38.141Z,94.00
2023-04-01T20:01:06.891Z,93.81
2023-04-01T20:03:43.458Z,93.54
2023-04-01T20:06:21.689Z,93.95
2023-04-01T20:09:00.233Z,94.04
2023-04-01T20:11:39.329Z,94.34
2023-04-01T20:14:15.886Z,94.25
2023-04-01T20:17:01.999Z,94.24
2023-04-01T20:19:38.716Z,94.87
2023-04-01T20:22:21.736Z,95.70
2023-04-01T20:24:49.767Z,95.43
2023-04-01T20:27:22.028Z,95.90
2023-04-01T20:30:02.518Z,95.62
2023-04-01T20:32:46.017Z,95.55
2023-04-01T20:35:37.382Z,95.75
2023-04-01T20:38:29.564Z,96.14
2023-04-01T20:41:03.937Z,96.26
2023-04-01T20:43:57.961Z,96.27
2023-04-01T20:46:31.576Z,96.14
2023-04-01T20:49:15.766Z,96.35
2023-04-01T20:51:47.877Z,96.23
2023-04-01T20:54:31.671Z,96.09
2023-04-01T20:57:06.261Z,96.28
2023-04-01T21:00:27.150Z,95.54
2023-04-01T21:03:10.019Z,95.47
2023-04-01T21:06:15.978Z,95.49
2023-04-01T21:09:00.248Z,95.42
2023-04-01T21:11:40.561Z,96.08
2023-04-01T21:14:34.846Z,95.91
2023-04-01T21:17:09.305Z,95.66
2023-04-01T21:19:57.052Z,95.32
2023-04-01T21:22:37.827Z,95.62
2023-04-01T21:25:18.913Z,96.08
2023-04-01T21:28:12.092Z,96.12
2023-04-01T21:30:52.658Z,96.25
2023-04-01T21:33:41.998Z,96.83
2023-04-01T21:36:20.218Z,96.55
2023-04-01T21:39:00.920Z,96.61
2023-04-01T21:41:40.055Z,96.74
2023-04-01T21:44:38.003Z,96.58
2023-04-01T21:47:32.382Z,96.99
2023-04-01T21:50:28.881Z,97.34
2023-04-01T21:53:34.922Z,97.51
2023-04-01T21:56:49.439Z,97.69
2023-04-01T22:00:08.799Z,97.92
2023-04-01T22:03:26.166Z,97.89
2023-04-01T22:06:01.647Z,98.20
2023-04-01T22:08:40.743Z,98.39
2023-04-01T22:11:17.886Z,98.50
2023-04-01T22:13:50.980Z,98.56
2023-04-01T22:16:25.604Z,98.71
2023-04-01T22:19:01.184Z,98.91
2023-04-01T22:21:33.349Z,98.88
2023-04-01T22:24:07.695Z,99.02
2023-04-01T22:26:39.725Z,99.13
2023-04-01T22:29:12.179Z,98.82
2023-04-01T22:31:48.260Z,98.84
2023-04-01T22:34:20.415Z,98.90
2023-04-01T22:36:56.555Z,98.80
2023-04-01T22:39:51.610Z,98.89
2023-04-01T22:42:34.849Z,99.21
2023-04-01T22:45:17.407Z,99.49
2023-04-01T22:47:53.054Z,99.05
2023-04-01T22:50:22.729Z,99.43
2023-04-01T22:52:56.021Z,99.09
2023-04-01T22:55:26.534Z,99.56
2023-04-01T22:57:59.608Z,99.89
2023-04-01T23:00:30.874Z,99.85
2023-04-01T23:03:12.232Z,99.53
2023-04-01T23:05:45.636Z,99.43
2023-04-01T23:08:39.080Z,99.44
2023-04-01T23:11:08.785Z,100.00
2023-04-01T23:13:40.905Z,99.77
2023-04-01T23:16:09.811Z,99.58
2023-04-01T23:18:47.320Z,99.86
2023-04-01T23:21:18.738Z,99.91
2023-04-01T23:23:59.285Z,99.81
2023-04-01T23:26:34.098Z,99.90
2023-04-01T23:29:01.293Z,99.90
2023-04-01T23:31:30.973Z,99.80
2023-04-01T23:34:00.872Z,99.90
2023-04-01T23:36:28.975Z,100.00
2023-04-01T23:38:56.008Z,100.00
2023-04-01T23:41:25.756Z,100.00
2023-04-01T23:43:56.281Z,99.99
2023-04-01T23:46:23.520Z,100.00
2023-04-01T23:48:51.132Z,99.96
2023-04-01T23:51:23.059Z,100.00
2023-04-01T23:53:59.761Z,100.00
2023-04-01T23:56:35.302Z,100.00
2023-04-01T23:59:03.543Z,100.00
